Engenho Velho, Brazil
Current Conditions -  °F | °C
As of 6:00 PM on Friday 24 Oct 2014 (Local Time) from SBCH Reporting Station
Clear Clear  
Wind Chill: 82°   Ceiling: Unl
Heat Index: 83°   Visibility: 6mi
Dew Point: 61°   Wind: 8mph
Humidity: 48%   Direction: 280°W
Pressure: 29.91"   Gusts: NA
Location:  27.71°S, 52.91°W
Report Text: SBCH 242000Z 28007KT CAVOK 28/16 Q1013
Loading
Personal Weather Stations






























Interactive Weather Map
Tropical Storm Tracking
New forecast layout! Learn more

10-Day Weather Forecast

Advertisements
Track Severe Weather on mobile